sensor_id;sensor_type;location;lat;lon;timestamp;temperature;humidity
40323;DHT22;26030;51.164;17.100;2022-08-01T18:20:04;25.60;58.80
40323;DHT22;26030;51.164;17.100;2022-08-01T18:25:07;25.60;58.90
40323;DHT22;26030;51.164;17.100;2022-08-01T18:30:11;25.60;59.00
40323;DHT22;26030;51.164;17.100;2022-08-01T18:35:13;25.60;59.30
40323;DHT22;26030;51.164;17.100;2022-08-01T18:40:16;25.60;59.30
40323;DHT22;26030;51.164;17.100;2022-08-01T18:45:24;25.60;58.90
40323;DHT22;26030;51.164;17.100;2022-08-01T18:50:26;25.60;58.40
40323;DHT22;26030;51.164;17.100;2022-08-01T19:09:39;25.60;58.50
40323;DHT22;26030;51.164;17.100;2022-08-01T19:14:42;25.50;58.50
40323;DHT22;26030;51.164;17.100;2022-08-01T19:19:51;25.60;58.70
40323;DHT22;26030;51.164;17.100;2022-08-01T19:25:01;25.50;58.60
40323;DHT22;26030;51.164;17.100;2022-08-01T19:30:04;25.60;58.50
40323;DHT22;26030;51.164;17.100;2022-08-01T19:35:09;25.50;58.60
40323;DHT22;26030;51.164;17.100;2022-08-01T19:40:16;25.50;58.70
40323;DHT22;26030;51.164;17.100;2022-08-01T19:45:29;25.50;58.70
40323;DHT22;26030;51.164;17.100;2022-08-01T19:50:33;25.50;58.60
40323;DHT22;26030;51.164;17.100;2022-08-01T19:55:36;25.50;58.60
40323;DHT22;26030;51.164;17.100;2022-08-01T20:00:43;25.50;58.60
40323;DHT22;26030;51.164;17.100;2022-08-01T20:05:55;25.50;58.50
40323;DHT22;26030;51.164;17.100;2022-08-01T20:10:59;25.50;58.50
40323;DHT22;26030;51.164;17.100;2022-08-01T20:16:21;25.40;58.40
40323;DHT22;26030;51.164;17.100;2022-08-01T20:21:30;25.40;58.40
40323;DHT22;26030;51.164;17.100;2022-08-01T20:27:07;25.40;58.40
40323;DHT22;26030;51.164;17.100;2022-08-01T20:32:11;25.40;58.40
40323;DHT22;26030;51.164;17.100;2022-08-01T20:37:16;25.40;58.50
40323;DHT22;26030;51.164;17.100;2022-08-01T20:42:41;25.40;58.50
40323;DHT22;26030;51.164;17.100;2022-08-01T20:47:54;25.40;59.00
40323;DHT22;26030;51.164;17.100;2022-08-01T20:52:57;25.40;58.80
40323;DHT22;26030;51.164;17.100;2022-08-01T20:57:59;25.40;58.50
40323;DHT22;26030;51.164;17.100;2022-08-01T21:03:06;25.40;58.50
40323;DHT22;26030;51.164;17.100;2022-08-01T21:08:14;25.40;58.50
40323;DHT22;26030;51.164;17.100;2022-08-01T21:13:27;25.40;58.60
40323;DHT22;26030;51.164;17.100;2022-08-01T21:24:18;25.40;58.60
40323;DHT22;26030;51.164;17.100;2022-08-01T21:29:25;25.40;58.60
40323;DHT22;26030;51.164;17.100;2022-08-01T21:34:28;25.40;58.60
40323;DHT22;26030;51.164;17.100;2022-08-01T21:39:31;25.40;58.90
40323;DHT22;26030;51.164;17.100;2022-08-01T21:44:37;25.40;58.60
40323;DHT22;26030;51.164;17.100;2022-08-01T21:49:40;25.40;58.70
40323;DHT22;26030;51.164;17.100;2022-08-01T21:54:59;25.40;58.70
40323;DHT22;26030;51.164;17.100;2022-08-01T22:00:17;25.40;58.70
40323;DHT22;26030;51.164;17.100;2022-08-01T22:05:27;25.40;58.70
40323;DHT22;26030;51.164;17.100;2022-08-01T22:10:55;25.30;58.70
40323;DHT22;26030;51.164;17.100;2022-08-01T22:15:59;25.30;58.70
40323;DHT22;26030;51.164;17.100;2022-08-01T22:21:07;25.40;58.70
40323;DHT22;26030;51.164;17.100;2022-08-01T22:26:13;25.30;58.70
40323;DHT22;26030;51.164;17.100;2022-08-01T22:31:16;25.30;58.80
40323;DHT22;26030;51.164;17.100;2022-08-01T22:36:21;25.30;58.70
40323;DHT22;26030;51.164;17.100;2022-08-01T22:41:30;25.30;58.70
40323;DHT22;26030;51.164;17.100;2022-08-01T22:46:59;25.30;58.70
40323;DHT22;26030;51.164;17.100;2022-08-01T22:57:34;25.30;58.60
40323;DHT22;26030;51.164;17.100;2022-08-01T23:03:13;25.30;58.60
40323;DHT22;26030;51.164;17.100;2022-08-01T23:08:19;25.30;58.60
40323;DHT22;26030;51.164;17.100;2022-08-01T23:13:22;25.30;58.70
40323;DHT22;26030;51.164;17.100;2022-08-01T23:18:26;25.30;58.70
40323;DHT22;26030;51.164;17.100;2022-08-01T23:23:33;25.30;58.70
40323;DHT22;26030;51.164;17.100;2022-08-01T23:28:35;25.20;58.70
40323;DHT22;26030;51.164;17.100;2022-08-01T23:33:38;25.20;58.60
40323;DHT22;26030;51.164;17.100;2022-08-01T23:38:41;25.20;58.90
40323;DHT22;26030;51.164;17.100;2022-08-01T23:43:43;25.20;58.60
40323;DHT22;26030;51.164;17.100;2022-08-01T23:48:53;25.20;58.60
40323;DHT22;26030;51.164;17.100;2022-08-01T23:53:56;25.20;58.60
40323;DHT22;26030;51.164;17.100;2022-08-01T23:58:58;25.20;59.00
